Time;durP1;ratioP1;P1;durP2;ratioP2;P2;SDS_P1;SDS_P2;PMS_P1;PMS_P2;Temp;Humidity;BMP_temperature;BMP_pressure;BME280_temperature;BME280_humidity;BME280_pressure;Samples;Min_cycle;Max_cycle;Signal;HPM_P1;HPM_P2
2023/11/27 00:01:08;;;;;;;25.10;22.53;;;5.90;99.90;;;;;;5057414;28;20450;-82
2023/11/27 00:03:37;;;;;;;24.57;22.03;;;5.90;99.90;;;;;;5057771;28;20864;-81
2023/11/27 00:06:06;;;;;;;22.20;20.00;;;5.90;99.90;;;;;;5057759;28;20473;-82
2023/11/27 00:08:35;;;;;;;25.00;22.47;;;5.90;99.90;;;;;;5057025;28;20454;-81
2023/11/27 00:11:03;;;;;;;23.50;20.90;;;6.00;99.90;;;;;;5056931;28;20442;-81
2023/11/27 00:13:31;;;;;;;23.30;20.53;;;5.90;99.90;;;;;;5073668;28;20450;-82
2023/11/27 00:16:00;;;;;;;26.50;22.07;;;6.00;99.90;;;;;;5073578;28;20455;-81
2023/11/27 00:18:29;;;;;;;24.67;22.07;;;5.90;99.90;;;;;;5056341;28;20450;-81
2023/11/27 00:20:58;;;;;;;23.17;20.80;;;5.90;99.90;;;;;;5057788;28;20443;-81
2023/11/27 00:27:13;;;;;;;21.63;18.40;;;5.90;99.90;;;;;;5057164;28;20463;-81
2023/11/27 00:29:42;;;;;;;25.00;22.30;;;5.90;99.90;;;;;;5056438;28;20504;-82
2023/11/27 00:32:10;;;;;;;25.40;21.93;;;5.90;99.90;;;;;;5056531;28;20484;-81
2023/11/27 00:34:39;;;;;;;24.33;21.93;;;5.90;99.90;;;;;;5056937;28;20439;-82
2023/11/27 00:37:08;;;;;;;23.13;20.73;;;5.90;99.90;;;;;;5057063;28;20446;-82
2023/11/27 00:39:36;;;;;;;23.83;21.37;;;6.00;99.90;;;;;;5057947;28;20439;-82
2023/11/27 00:42:07;;;;;;;23.63;21.30;;;6.00;99.90;;;;;;5056355;28;20481;-82
2023/11/27 00:44:35;;;;;;;22.33;19.97;;;5.90;99.90;;;;;;5056318;28;20546;-81
2023/11/27 00:47:06;;;;;;;22.07;19.23;;;5.90;99.90;;;;;;5056077;28;20458;-82
2023/11/27 00:49:35;;;;;;;22.73;20.10;;;5.90;99.90;;;;;;5056054;28;20441;-82
2023/11/27 00:52:05;;;;;;;20.87;18.90;;;5.90;99.90;;;;;;5056073;28;20504;-82
2023/11/27 00:54:33;;;;;;;19.40;17.40;;;5.90;99.90;;;;;;5056243;28;20453;-82
2023/11/27 00:57:02;;;;;;;17.27;15.67;;;5.90;99.90;;;;;;5055973;28;20454;-81
2023/11/27 00:59:30;;;;;;;18.00;16.10;;;5.90;99.90;;;;;;5057896;28;20443;-82
2023/11/27 01:01:59;;;;;;;16.47;14.67;;;5.90;99.90;;;;;;5059325;28;20467;-82
2023/11/27 01:04:27;;;;;;;16.03;14.43;;;5.90;99.90;;;;;;5060607;28;20434;-82
2023/11/27 01:06:55;;;;;;;15.00;13.50;;;5.90;99.90;;;;;;5075794;28;20883;-82
2023/11/27 01:09:25;;;;;;;17.30;13.77;;;5.90;99.90;;;;;;5062252;28;20446;-82
2023/11/27 01:11:54;;;;;;;18.47;14.70;;;5.90;99.90;;;;;;5062308;28;20536;-82
2023/11/27 01:14:23;;;;;;;17.30;15.50;;;5.90;99.90;;;;;;5061891;28;20505;-82
2023/11/27 01:16:51;;;;;;;17.23;14.80;;;5.90;99.90;;;;;;5078313;28;20446;-82
2023/11/27 01:19:19;;;;;;;14.67;13.00;;;5.80;99.90;;;;;;5078163;28;20446;-82
2023/11/27 01:21:47;;;;;;;18.60;15.67;;;5.90;99.90;;;;;;5063221;28;20457;-82
2023/11/27 01:24:16;;;;;;;15.83;13.90;;;5.90;99.90;;;;;;5062837;28;20505;-82
2023/11/27 01:26:46;;;;;;;15.03;13.50;;;5.90;99.90;;;;;;5077635;28;21002;-82
2023/11/27 01:29:21;;;;;;;17.57;15.00;;;5.90;99.90;;;;;;5061559;28;20477;-82
2023/11/27 01:31:50;;;;;;;19.33;14.33;;;5.90;99.90;;;;;;5077536;28;20470;-81
2023/11/27 01:34:19;;;;;;;13.77;12.37;;;5.90;99.90;;;;;;5061440;28;20456;-81
2023/11/27 01:36:47;;;;;;;15.47;13.73;;;5.90;99.90;;;;;;5061068;28;20487;-82
2023/11/27 01:39:16;;;;;;;14.03;12.67;;;5.90;99.90;;;;;;5060926;28;20445;-82
2023/11/27 01:41:46;;;;;;;14.13;12.70;;;5.90;99.90;;;;;;5060577;28;20474;-82
2023/11/27 01:44:15;;;;;;;14.10;12.60;;;5.90;99.90;;;;;;5060930;28;20442;-81
2023/11/27 01:46:47;;;;;;;13.27;11.87;;;5.90;99.90;;;;;;5059916;28;20839;-82
2023/11/27 01:49:17;;;;;;;12.53;11.13;;;5.90;99.90;;;;;;5061778;28;20422;-82
2023/11/27 01:51:46;;;;;;;13.43;12.00;;;5.90;99.90;;;;;;5059939;28;20997;-81
2023/11/27 01:54:18;;;;;;;13.03;11.73;;;5.90;99.90;;;;;;5060167;28;20442;-82
2023/11/27 01:56:50;;;;;;;12.53;11.23;;;5.90;99.90;;;;;;5060156;28;20500;-82
2023/11/27 01:59:20;;;;;;;14.30;12.60;;;5.90;99.90;;;;;;5060051;28;20457;-81
2023/11/27 02:01:48;;;;;;;13.50;11.43;;;5.90;99.90;;;;;;5075367;28;20470;-81
2023/11/27 02:04:17;;;;;;;13.70;11.87;;;5.90;99.90;;;;;;5058852;28;20501;-81
2023/11/27 02:06:45;;;;;;;14.03;12.53;;;5.90;99.90;;;;;;5058014;28;20610;-81
2023/11/27 02:09:15;;;;;;;13.37;11.90;;;5.90;99.90;;;;;;5058951;28;20443;-81
2023/11/27 02:11:50;;;;;;;12.60;11.30;;;5.90;99.90;;;;;;5074177;28;20494;-81
2023/11/27 02:14:18;;;;;;;14.23;12.33;;;5.80;99.90;;;;;;5059528;28;20430;-81
2023/11/27 02:16:47;;;;;;;14.37;12.13;;;5.90;99.90;;;;;;5058613;28;20482;-81
2023/11/27 02:19:16;;;;;;;15.27;11.70;;;5.80;99.90;;;;;;5057888;28;20438;-81
2023/11/27 02:21:45;;;;;;;14.73;11.07;;;5.90;99.90;;;;;;5057628;28;20935;-81
2023/11/27 02:24:15;;;;;;;14.70;11.87;;;5.90;99.90;;;;;;5057638;28;20450;-81
2023/11/27 02:26:43;;;;;;;14.53;12.33;;;5.80;99.90;;;;;;5056828;28;20450;-81
2023/11/27 02:29:12;;;;;;;13.73;12.00;;;5.80;99.90;;;;;;5056714;28;20706;-81
2023/11/27 02:31:40;;;;;;;14.33;12.80;;;5.80;99.90;;;;;;5057643;28;20570;-81
2023/11/27 02:34:08;;;;;;;15.60;14.00;;;5.80;99.90;;;;;;5057162;28;20450;-81
2023/11/27 02:36:38;;;;;;;18.40;14.70;;;5.80;99.90;;;;;;5057419;28;20885;-81
2023/11/27 02:39:07;;;;;;;18.70;16.07;;;5.80;99.90;;;;;;5058925;28;20816;-81
2023/11/27 02:41:37;;;;;;;16.90;14.07;;;5.80;99.90;;;;;;5057591;28;20914;-81
2023/11/27 02:44:06;;;;;;;20.87;17.37;;;5.80;99.90;;;;;;5057141;28;20451;-81
2023/11/27 02:46:35;;;;;;;25.03;19.60;;;5.80;99.90;;;;;;5056772;28;20450;-81
2023/11/27 02:49:03;;;;;;;22.43;18.97;;;5.80;99.90;;;;;;5057539;28;20474;-81
2023/11/27 02:51:32;;;;;;;26.13;21.23;;;5.80;99.90;;;;;;5057179;28;20992;-81
2023/11/27 02:54:00;;;;;;;27.37;22.00;;;5.80;99.90;;;;;;5057166;28;20504;-81
2023/11/27 02:56:28;;;;;;;21.43;19.17;;;5.80;99.90;;;;;;5057374;28;20446;-81
2023/11/27 02:58:58;;;;;;;34.77;26.90;;;5.80;99.90;;;;;;5057189;28;20549;-81
2023/11/27 03:01:26;;;;;;;31.10;27.13;;;5.80;99.90;;;;;;5073222;28;20474;-81
2023/11/27 03:03:56;;;;;;;38.50;30.50;;;5.80;99.90;;;;;;5057654;28;20457;-81
2023/11/27 03:06:24;;;;;;;38.30;30.13;;;5.80;99.90;;;;;;5062314;28;20444;-81
2023/11/27 03:08:51;;;;;;;41.77;32.33;;;5.80;99.90;;;;;;5059884;28;20479;-81
2023/11/27 03:11:19;;;;;;;46.17;36.77;;;5.80;99.90;;;;;;5059850;28;20451;-81
2023/11/27 03:13:48;;;;;;;51.70;39.23;;;5.80;99.90;;;;;;5060711;28;20503;-81
2023/11/27 03:16:17;;;;;;;51.17;41.50;;;5.80;99.90;;;;;;5060203;28;20997;-81
2023/11/27 03:18:46;;;;;;;49.70;41.23;;;5.80;99.90;;;;;;5059130;28;20467;-81
2023/11/27 03:21:21;;;;;;;56.40;41.93;;;5.80;99.90;;;;;;5057791;28;20448;-81
2023/11/27 03:23:49;;;;;;;65.30;48.90;;;5.80;99.90;;;;;;5075494;28;20450;-81
2023/11/27 03:26:21;;;;;;;57.33;45.47;;;5.80;99.90;;;;;;5059005;28;20521;-81
2023/11/27 03:28:50;;;;;;;59.20;46.53;;;5.80;99.90;;;;;;5058905;28;20462;-81
2023/11/27 03:31:19;;;;;;;56.43;43.40;;;5.80;99.90;;;;;;5075204;28;20545;-81
2023/11/27 03:33:49;;;;;;;58.30;44.83;;;5.80;99.90;;;;;;5057615;28;20484;-81
2023/11/27 03:36:17;;;;;;;60.60;44.50;;;5.80;99.90;;;;;;5073569;28;20438;-81
2023/11/27 03:38:46;;;;;;;56.93;46.63;;;5.80;99.90;;;;;;5056107;28;20477;-81
2023/11/27 03:41:18;;;;;;;65.60;48.93;;;5.80;99.90;;;;;;5055446;28;20450;-80
2023/11/27 03:43:46;;;;;;;59.70;48.33;;;5.80;99.90;;;;;;5055428;28;20455;-81
2023/11/27 03:46:14;;;;;;;60.87;45.57;;;5.80;99.90;;;;;;5055837;28;20885;-81
2023/11/27 03:48:44;;;;;;;62.27;46.33;;;5.80;99.90;;;;;;5056935;28;20493;-81
2023/11/27 03:51:13;;;;;;;56.77;43.57;;;5.70;99.90;;;;;;5054648;28;20450;-81
2023/11/27 03:53:41;;;;;;;61.07;46.30;;;5.70;99.90;;;;;;5071506;28;20458;-81
2023/11/27 03:56:09;;;;;;;65.00;47.60;;;5.70;99.90;;;;;;5056631;28;20446;-81
2023/11/27 03:58:38;;;;;;;63.47;45.17;;;5.70;99.90;;;;;;5055199;28;20461;-81
2023/11/27 04:01:07;;;;;;;55.20;43.90;;;5.70;99.90;;;;;;5071515;28;20505;-81
2023/11/27 04:03:38;;;;;;;64.10;46.97;;;5.70;99.90;;;;;;5055134;28;20512;-81
2023/11/27 04:06:09;;;;;;;66.00;49.70;;;5.70;99.90;;;;;;5054748;28;20440;-81
2023/11/27 04:08:38;;;;;;;68.10;45.87;;;5.70;99.90;;;;;;5055162;28;20466;-81
2023/11/27 04:11:12;;;;;;;59.33;43.10;;;5.70;99.90;;;;;;5056419;28;20446;-81
2023/11/27 04:13:41;;;;;;;54.90;42.70;;;5.70;99.90;;;;;;5055117;28;20537;-81
2023/11/27 04:16:10;;;;;;;56.10;45.53;;;5.70;99.90;;;;;;5055049;28;20512;-81
2023/11/27 04:18:38;;;;;;;52.43;42.00;;;5.70;99.90;;;;;;5055260;28;20439;-81
2023/11/27 04:21:10;;;;;;;59.50;43.43;;;5.70;99.90;;;;;;5057199;28;20522;-81
2023/11/27 04:23:38;;;;;;;56.23;45.90;;;5.70;99.90;;;;;;5057902;28;20795;-81
2023/11/27 04:26:07;;;;;;;55.07;47.33;;;5.70;99.90;;;;;;5055327;28;20446;-81
2023/11/27 04:28:37;;;;;;;57.43;44.60;;;5.70;99.90;;;;;;5054946;28;20462;-81
2023/11/27 04:31:06;;;;;;;54.80;45.17;;;5.70;99.90;;;;;;5071214;28;20454;-81
2023/11/27 04:33:34;;;;;;;58.03;44.10;;;5.70;99.90;;;;;;5056438;28;20450;-81
2023/11/27 04:36:03;;;;;;;53.20;41.93;;;5.70;99.90;;;;;;5060481;28;20430;-81
2023/11/27 04:38:33;;;;;;;52.90;40.50;;;5.70;99.90;;;;;;5060047;28;20501;-82
2023/11/27 04:41:02;;;;;;;51.27;42.00;;;5.70;99.90;;;;;;5058731;28;20482;-81
2023/11/27 04:43:30;;;;;;;52.17;39.70;;;5.70;99.90;;;;;;5058598;28;20794;-81
2023/11/27 04:46:00;;;;;;;51.90;44.50;;;5.70;99.90;;;;;;5058709;28;20454;-81
2023/11/27 04:48:28;;;;;;;48.63;39.37;;;5.70;99.90;;;;;;5058037;28;20470;-81
2023/11/27 04:50:56;;;;;;;46.90;39.33;;;5.70;99.90;;;;;;5057698;28;20470;-81
2023/11/27 04:53:25;;;;;;;53.97;42.43;;;5.70;99.90;;;;;;5057996;28;20471;-81
2023/11/27 04:55:54;;;;;;;64.20;45.53;;;5.70;99.90;;;;;;5059104;28;20520;-81
2023/11/27 04:58:24;;;;;;;49.30;40.87;;;5.70;99.90;;;;;;5057384;28;20951;-81
2023/11/27 05:00:53;;;;;;;47.73;38.37;;;5.70;99.90;;;;;;5059835;28;20488;-81
2023/11/27 05:03:21;;;;;;;58.27;42.10;;;5.70;99.90;;;;;;5061900;28;20454;-81
2023/11/27 05:05:49;;;;;;;50.10;40.70;;;5.70;99.90;;;;;;5060807;28;20449;-81
2023/11/27 05:08:18;;;;;;;50.50;41.30;;;5.70;99.90;;;;;;5076937;28;20445;-81
2023/11/27 05:10:46;;;;;;;47.50;41.90;;;5.70;99.90;;;;;;5061809;28;20467;-81
2023/11/27 05:13:18;;;;;;;51.37;40.03;;;5.70;99.90;;;;;;5059664;28;21019;-81
2023/11/27 05:15:46;;;;;;;49.30;39.80;;;5.70;99.90;;;;;;5060160;28;20547;-81
2023/11/27 05:18:15;;;;;;;51.60;41.17;;;5.70;99.90;;;;;;5061386;28;20473;-81
2023/11/27 05:20:43;;;;;;;46.60;37.60;;;5.60;99.90;;;;;;5060640;28;20478;-81
2023/11/27 05:23:11;;;;;;;44.97;39.57;;;5.60;99.90;;;;;;5059826;28;20478;-81
2023/11/27 05:25:39;;;;;;;47.53;40.80;;;5.60;99.90;;;;;;5060187;28;20438;-81
2023/11/27 05:28:07;;;;;;;44.97;36.87;;;5.60;99.90;;;;;;5059850;28;20448;-81
2023/11/27 05:30:37;;;;;;;46.53;35.40;;;5.60;99.90;;;;;;5062684;28;20554;-81
2023/11/27 05:33:06;;;;;;;53.63;40.37;;;5.60;99.90;;;;;;5063499;28;20462;-81
2023/11/27 05:35:34;;;;;;;46.30;37.33;;;5.60;99.90;;;;;;5061374;28;20455;-81
2023/11/27 05:38:02;;;;;;;44.93;38.10;;;5.60;99.90;;;;;;5062106;28;20434;-81
2023/11/27 05:40:32;;;;;;;48.77;38.13;;;5.60;99.90;;;;;;5061451;28;20449;-81
2023/11/27 05:43:05;;;;;;;51.03;42.80;;;5.60;99.90;;;;;;5061869;28;20470;-81
2023/11/27 05:45:34;;;;;;;49.80;39.83;;;5.60;99.90;;;;;;5063383;28;20857;-81
2023/11/27 05:48:05;;;;;;;49.33;39.80;;;5.60;99.90;;;;;;5062837;28;20508;-81
2023/11/27 05:50:34;;;;;;;45.30;37.83;;;5.60;99.90;;;;;;5078250;28;20518;-81
2023/11/27 05:53:03;;;;;;;43.50;36.77;;;5.50;99.90;;;;;;5077732;28;20455;-81
2023/11/27 05:55:31;;;;;;;41.97;35.13;;;5.50;99.90;;;;;;5062660;28;20486;-81
2023/11/27 05:58:00;;;;;;;43.90;36.80;;;5.50;99.90;;;;;;5060630;28;20536;-81
2023/11/27 06:00:28;;;;;;;38.43;31.43;;;5.50;99.90;;;;;;5060355;28;20458;-81
2023/11/27 06:02:56;;;;;;;36.03;32.23;;;5.50;99.90;;;;;;5059080;28;20471;-81
2023/11/27 06:05:26;;;;;;;36.57;31.87;;;5.50;99.90;;;;;;5060601;28;20477;-81
2023/11/27 06:07:54;;;;;;;36.90;31.87;;;5.50;99.90;;;;;;5061554;28;20434;-81
2023/11/27 06:10:23;;;;;;;38.77;34.70;;;5.40;99.90;;;;;;5059881;28;20505;-81
2023/11/27 06:12:51;;;;;;;36.60;31.67;;;5.40;99.90;;;;;;5059662;28;20517;-81
2023/11/27 06:15:19;;;;;;;35.43;29.60;;;5.40;99.90;;;;;;5059697;28;20451;-81
2023/11/27 06:17:48;;;;;;;37.50;31.80;;;5.40;99.90;;;;;;5059664;28;20463;-81
2023/11/27 06:20:16;;;;;;;36.07;32.17;;;5.40;99.90;;;;;;5059635;28;20446;-81
2023/11/27 06:22:46;;;;;;;36.63;32.07;;;5.40;99.90;;;;;;5059031;28;20486;-81
2023/11/27 06:25:14;;;;;;;34.80;31.20;;;5.40;99.90;;;;;;5057881;28;20458;-81
2023/11/27 06:27:42;;;;;;;32.70;29.20;;;5.40;99.90;;;;;;5056706;28;20539;-81
2023/11/27 06:30:14;;;;;;;37.53;31.50;;;5.40;99.90;;;;;;5057551;28;20480;-81
2023/11/27 06:32:42;;;;;;;38.53;31.33;;;5.40;99.90;;;;;;5057099;28;20531;-81
2023/11/27 06:35:11;;;;;;;35.57;31.10;;;5.40;99.90;;;;;;5058183;28;20446;-81
2023/11/27 06:37:40;;;;;;;36.00;32.13;;;5.40;99.90;;;;;;5073875;28;20446;-81
2023/11/27 06:40:11;;;;;;;35.40;28.50;;;5.40;99.90;;;;;;5055813;28;20940;-81
2023/11/27 06:42:40;;;;;;;38.07;31.27;;;5.40;99.90;;;;;;5055804;28;20473;-81
2023/11/27 06:45:09;;;;;;;35.80;31.47;;;5.40;99.90;;;;;;5055741;28;20458;-81
2023/11/27 06:47:38;;;;;;;33.00;29.37;;;5.40;99.90;;;;;;5055576;28;20490;-82
2023/11/27 06:50:07;;;;;;;31.23;27.93;;;5.40;99.90;;;;;;5072120;28;20471;-82
2023/11/27 06:52:35;;;;;;;35.00;29.70;;;5.40;99.90;;;;;;5055427;28;20842;-82
2023/11/27 06:55:04;;;;;;;32.93;28.80;;;5.40;99.90;;;;;;5071962;28;20456;-82
2023/11/27 06:57:34;;;;;;;31.93;28.53;;;5.40;99.90;;;;;;5073028;28;20462;-82
2023/11/27 07:00:05;;;;;;;31.70;28.27;;;5.40;99.90;;;;;;5058409;28;20461;-82
2023/11/27 07:02:33;;;;;;;32.33;28.97;;;5.30;99.90;;;;;;5056671;28;20530;-82
2023/11/27 07:05:02;;;;;;;30.93;27.77;;;5.30;99.90;;;;;;5056391;28;20453;-82
2023/11/27 07:07:31;;;;;;;30.73;27.40;;;5.40;99.90;;;;;;5056807;28;20497;-83
2023/11/27 07:09:59;;;;;;;31.73;28.10;;;5.30;99.90;;;;;;5056065;28;20466;-82
2023/11/27 07:12:28;;;;;;;29.20;26.00;;;5.30;99.90;;;;;;5057439;28;20967;-83
2023/11/27 07:14:58;;;;;;;29.30;26.20;;;5.30;99.90;;;;;;5057514;28;20846;-82
2023/11/27 07:17:26;;;;;;;31.23;27.97;;;5.30;99.90;;;;;;5056018;28;20481;-82
2023/11/27 07:19:55;;;;;;;30.43;27.13;;;5.30;99.90;;;;;;5056402;28;20450;-82
2023/11/27 07:22:23;;;;;;;31.27;27.97;;;5.30;99.90;;;;;;5055963;28;20895;-82
2023/11/27 07:24:51;;;;;;;28.43;25.53;;;5.30;99.90;;;;;;5056540;28;20780;-82
2023/11/27 07:27:20;;;;;;;29.03;26.03;;;5.30;99.90;;;;;;5055675;28;20444;-82
2023/11/27 07:29:48;;;;;;;30.03;26.70;;;5.30;99.90;;;;;;5055376;28;20473;-82
2023/11/27 07:32:18;;;;;;;28.70;25.63;;;5.30;99.90;;;;;;5055013;28;20470;-82
2023/11/27 07:34:46;;;;;;;28.43;25.33;;;5.30;99.90;;;;;;5055581;28;20454;-82
2023/11/27 07:37:14;;;;;;;27.33;24.40;;;5.20;99.90;;;;;;5054848;28;20485;-83
2023/11/27 07:39:44;;;;;;;31.40;26.53;;;5.20;99.90;;;;;;5054820;28;20446;-82
2023/11/27 07:42:14;;;;;;;31.13;27.33;;;5.20;99.90;;;;;;5055144;28;20477;-82
2023/11/27 07:44:43;;;;;;;29.43;26.20;;;5.20;99.90;;;;;;5054943;28;20442;-83
2023/11/27 07:47:12;;;;;;;32.23;28.90;;;5.20;99.90;;;;;;5056031;28;20537;-83
2023/11/27 07:49:41;;;;;;;31.20;27.93;;;5.20;99.90;;;;;;5057074;28;20492;-83
2023/11/27 07:52:10;;;;;;;29.60;26.53;;;5.20;99.90;;;;;;5056085;28;20502;-83
2023/11/27 07:54:38;;;;;;;29.33;26.33;;;5.20;99.90;;;;;;5055682;28;20459;-83
2023/11/27 07:57:06;;;;;;;29.20;26.10;;;5.20;99.90;;;;;;5055070;28;20458;-83
2023/11/27 07:59:35;;;;;;;29.40;25.67;;;5.20;99.90;;;;;;5057228;28;20525;-83
2023/11/27 08:02:04;;;;;;;31.40;28.20;;;5.20;99.90;;;;;;5056735;28;20463;-83
2023/11/27 08:04:33;;;;;;;30.53;27.23;;;5.20;99.90;;;;;;5056659;28;20476;-83
2023/11/27 08:07:03;;;;;;;32.70;29.23;;;5.20;99.90;;;;;;5056683;28;20469;-84
2023/11/27 08:09:33;;;;;;;33.70;28.60;;;5.20;99.90;;;;;;5055685;28;20454;-83
2023/11/27 08:12:02;;;;;;;32.67;29.27;;;5.30;99.90;;;;;;5058442;28;20513;-83
2023/11/27 08:14:30;;;;;;;34.03;29.63;;;5.20;99.90;;;;;;5061114;28;20501;-83
2023/11/27 08:16:58;;;;;;;33.03;29.53;;;5.20;99.90;;;;;;5058658;28;20520;-83
2023/11/27 08:19:27;;;;;;;33.23;29.73;;;5.30;99.90;;;;;;5075531;28;20453;-83
2023/11/27 08:21:55;;;;;;;37.10;32.40;;;5.20;99.90;;;;;;5058643;28;20470;-83
2023/11/27 08:24:25;;;;;;;33.67;30.07;;;5.30;99.90;;;;;;5058313;28;20442;-83
2023/11/27 08:26:53;;;;;;;36.80;33.03;;;5.30;99.90;;;;;;5058325;28;20505;-83
2023/11/27 08:29:25;;;;;;;34.73;30.97;;;5.20;99.90;;;;;;5059048;28;20449;-83
2023/11/27 08:31:54;;;;;;;33.93;30.37;;;5.20;99.90;;;;;;5059145;28;20479;-83
2023/11/27 08:34:22;;;;;;;34.30;30.77;;;5.20;99.90;;;;;;5060108;28;20446;-83
2023/11/27 08:36:50;;;;;;;36.07;32.20;;;5.30;99.90;;;;;;5059778;28;21015;-83
2023/11/27 08:39:20;;;;;;;33.00;28.83;;;5.20;99.90;;;;;;5059430;28;20451;-83
2023/11/27 08:41:51;;;;;;;33.17;29.70;;;5.20;99.90;;;;;;5059015;28;20893;-82
2023/11/27 08:44:20;;;;;;;34.80;28.30;;;5.20;99.90;;;;;;5057340;28;20449;-82
2023/11/27 08:46:48;;;;;;;29.13;25.83;;;5.20;99.90;;;;;;5057456;28;20449;-82
2023/11/27 08:49:17;;;;;;;32.67;29.30;;;5.30;99.90;;;;;;5057655;28;20457;-83
2023/11/27 08:51:46;;;;;;;28.33;23.53;;;5.20;99.90;;;;;;5073831;28;20486;-83
2023/11/27 08:54:14;;;;;;;28.40;22.90;;;5.20;99.90;;;;;;5057370;28;20454;-83
2023/11/27 08:56:43;;;;;;;20.37;18.37;;;5.20;99.90;;;;;;5057638;28;20808;-84
2023/11/27 08:59:14;;;;;;;18.77;16.80;;;5.20;99.90;;;;;;5058505;28;20442;-82
2023/11/27 09:01:42;;;;;;;16.60;15.00;;;5.20;99.90;;;;;;5058423;28;20465;-82
2023/11/27 09:04:11;;;;;;;15.90;14.40;;;5.20;99.90;;;;;;5057677;28;20457;-82
2023/11/27 09:06:39;;;;;;;14.33;13.03;;;5.20;99.90;;;;;;5074806;28;20478;-82
2023/11/27 09:09:08;;;;;;;12.27;11.10;;;5.20;99.90;;;;;;5058675;28;20537;-83
2023/11/27 09:11:36;;;;;;;12.00;11.00;;;5.20;99.90;;;;;;5074235;28;20489;-82
2023/11/27 09:14:07;;;;;;;12.50;11.37;;;5.20;99.90;;;;;;5057556;28;20818;-83
2023/11/27 09:16:36;;;;;;;13.10;11.90;;;5.10;99.90;;;;;;5074398;28;20457;-82
2023/11/27 09:19:05;;;;;;;11.93;10.83;;;5.10;99.90;;;;;;5059163;28;20484;-82
2023/11/27 09:21:33;;;;;;;12.10;11.00;;;5.10;99.90;;;;;;5057711;28;20454;-81
2023/11/27 09:24:02;;;;;;;13.50;12.30;;;5.10;99.90;;;;;;5057509;28;20447;-81
2023/11/27 09:26:31;;;;;;;13.67;12.37;;;5.10;99.90;;;;;;5057212;28;20450;-82
2023/11/27 09:28:59;;;;;;;13.30;12.00;;;5.10;99.90;;;;;;5056719;28;20483;-81
2023/11/27 09:31:28;;;;;;;12.90;11.70;;;5.20;99.90;;;;;;5056815;28;20520;-81
2023/11/27 09:33:59;;;;;;;13.50;12.30;;;5.10;99.90;;;;;;5056693;28;20840;-82
2023/11/27 09:36:27;;;;;;;12.20;11.10;;;5.20;99.90;;;;;;5073342;28;20518;-82
2023/11/27 09:38:55;;;;;;;13.33;12.03;;;5.10;99.90;;;;;;5056747;28;20459;-82
2023/11/27 09:41:24;;;;;;;13.27;12.07;;;5.10;99.90;;;;;;5056446;28;20448;-82
2023/11/27 09:43:52;;;;;;;13.63;12.43;;;5.10;99.90;;;;;;5056381;28;20446;-82
2023/11/27 09:46:24;;;;;;;14.00;12.80;;;5.20;99.90;;;;;;5056314;28;20458;-82
2023/11/27 09:48:57;;;;;;;13.20;11.90;;;5.20;99.90;;;;;;5056793;28;20450;-82
2023/11/27 09:51:27;;;;;;;14.00;12.70;;;5.20;99.90;;;;;;5055843;28;20853;-81
2023/11/27 09:53:58;;;;;;;11.93;10.80;;;5.20;99.90;;;;;;5056707;28;20446;-82
2023/11/27 09:56:28;;;;;;;11.93;10.93;;;5.20;99.90;;;;;;5055851;28;20450;-81
2023/11/27 09:58:59;;;;;;;12.57;11.37;;;5.20;99.90;;;;;;5055885;28;20455;-81
2023/11/27 10:01:29;;;;;;;13.37;12.17;;;5.20;99.90;;;;;;5055814;28;20466;-81
2023/11/27 10:04:00;;;;;;;13.53;12.33;;;5.20;99.90;;;;;;5055593;28;20500;-82
2023/11/27 10:06:33;;;;;;;13.13;11.97;;;5.20;99.90;;;;;;5056318;28;20446;-82
2023/11/27 10:09:04;;;;;;;12.53;11.43;;;5.20;99.90;;;;;;5056002;28;20450;-82
2023/11/27 10:11:34;;;;;;;12.73;11.63;;;5.20;99.90;;;;;;5055297;28;20474;-82
2023/11/27 10:14:04;;;;;;;16.50;15.10;;;5.20;99.90;;;;;;5057513;28;20537;-82
2023/11/27 10:16:54;;;;;;;15.10;13.80;;;5.20;99.90;;;;;;5057345;28;20534;-82
2023/11/27 10:19:25;;;;;;;15.03;13.73;;;5.20;99.90;;;;;;5055542;28;20450;-82
2023/11/27 10:21:57;;;;;;;16.77;15.13;;;5.20;99.90;;;;;;5072016;28;20477;-82
2023/11/27 10:24:26;;;;;;;14.67;13.37;;;5.20;99.90;;;;;;5055685;28;20474;-82
2023/11/27 10:26:56;;;;;;;15.20;13.70;;;5.20;99.90;;;;;;5055673;28;20444;-82
2023/11/27 10:29:27;;;;;;;15.03;13.63;;;5.20;99.90;;;;;;5055024;28;20505;-82
2023/11/27 10:31:59;;;;;;;15.30;13.93;;;5.20;99.90;;;;;;5054013;28;20485;-82
2023/11/27 10:34:32;;;;;;;16.87;15.37;;;5.20;99.90;;;;;;5055488;28;20461;-82
2023/11/27 10:37:02;;;;;;;15.63;14.17;;;5.20;99.90;;;;;;5055299;28;20458;-82
2023/11/27 10:39:32;;;;;;;13.13;12.00;;;5.30;99.90;;;;;;5054994;28;20501;-82
2023/11/27 10:42:03;;;;;;;16.07;14.37;;;5.20;99.90;;;;;;5055222;28;21190;-81
2023/11/27 10:44:36;;;;;;;18.10;16.40;;;5.20;99.90;;;;;;5056449;28;20547;-82
2023/11/27 10:47:07;;;;;;;16.70;15.10;;;5.30;99.90;;;;;;5056613;28;20778;-82
2023/11/27 10:49:38;;;;;;;18.60;16.90;;;5.30;99.90;;;;;;5055031;28;20484;-82
2023/11/27 10:52:11;;;;;;;19.73;17.83;;;5.30;99.90;;;;;;5054805;28;20475;-82
2023/11/27 10:54:41;;;;;;;19.07;17.30;;;5.30;99.90;;;;;;5056574;28;20428;-83
2023/11/27 10:57:10;;;;;;;19.20;17.20;;;5.30;99.90;;;;;;5055965;28;20466;-82
2023/11/27 10:59:42;;;;;;;17.90;16.20;;;5.30;99.90;;;;;;5055405;28;20792;-82
2023/11/27 11:02:12;;;;;;;18.60;16.80;;;5.20;99.90;;;;;;5055508;28;20467;-82
2023/11/27 11:04:49;;;;;;;17.37;15.67;;;5.30;99.90;;;;;;5055300;28;20442;-82
2023/11/27 11:07:26;;;;;;;18.57;16.93;;;5.30;99.90;;;;;;5056096;28;20994;-82
2023/11/27 11:09:56;;;;;;;18.77;16.83;;;5.30;99.90;;;;;;5054997;28;20443;-82
2023/11/27 11:12:25;;;;;;;18.77;17.03;;;5.30;99.90;;;;;;5054914;28;20467;-82
2023/11/27 11:14:56;;;;;;;17.97;16.20;;;5.30;99.90;;;;;;5054857;28;20472;-82
2023/11/27 11:17:35;;;;;;;17.20;15.40;;;5.30;99.90;;;;;;5071944;28;20447;-83
2023/11/27 11:20:14;;;;;;;17.23;15.63;;;5.30;99.90;;;;;;5054931;28;20434;-82
2023/11/27 11:23:06;;;;;;;16.23;14.70;;;5.30;99.90;;;;;;5071506;28;20470;-82
2023/11/27 11:25:45;;;;;;;15.53;14.03;;;5.30;99.90;;;;;;5054713;28;20442;-82
2023/11/27 11:28:21;;;;;;;16.37;14.77;;;5.20;99.90;;;;;;5071664;28;20477;-83
2023/11/27 11:31:08;;;;;;;15.07;13.67;;;5.20;99.90;;;;;;5073454;28;20445;-83
2023/11/27 11:33:37;;;;;;;16.93;15.27;;;5.20;99.90;;;;;;5055794;28;20964;-83
2023/11/27 11:36:07;;;;;;;17.90;16.20;;;5.20;99.90;;;;;;5055978;28;20883;-83
2023/11/27 11:38:37;;;;;;;15.93;14.43;;;5.20;99.90;;;;;;5071286;28;20446;-83
2023/11/27 11:41:05;;;;;;;15.77;14.37;;;5.20;99.90;;;;;;5054569;28;20801;-83
2023/11/27 11:43:42;;;;;;;16.17;14.57;;;5.20;99.90;;;;;;5053923;28;20500;-83
2023/11/27 11:46:18;;;;;;;13.17;11.90;;;5.20;99.90;;;;;;5056139;28;20503;-83
2023/11/27 11:48:55;;;;;;;12.47;11.17;;;5.20;99.90;;;;;;5055157;28;20429;-83
2023/11/27 11:51:25;;;;;;;13.30;12.00;;;5.20;99.90;;;;;;5053992;28;20445;-83
2023/11/27 11:53:55;;;;;;;11.97;10.90;;;5.20;99.90;;;;;;5053648;28;20490;-83
2023/11/27 11:56:23;;;;;;;12.63;11.47;;;5.20;99.90;;;;;;5055321;28;20438;-83
2023/11/27 11:59:09;;;;;;;12.00;11.00;;;5.10;99.90;;;;;;5054134;28;20457;-83
2023/11/27 12:01:43;;;;;;;11.90;10.90;;;5.10;99.90;;;;;;5054009;28;20481;-83
2023/11/27 12:04:13;;;;;;;12.20;11.00;;;5.10;99.90;;;;;;5058141;28;20426;-84
2023/11/27 12:06:45;;;;;;;12.03;11.00;;;5.00;99.90;;;;;;5071362;28;20456;-83
2023/11/27 12:09:17;;;;;;;12.67;11.47;;;5.00;99.90;;;;;;5054716;28;20919;-83
2023/11/27 12:11:47;;;;;;;11.40;10.40;;;5.00;99.90;;;;;;5057733;28;20458;-83
2023/11/27 12:14:18;;;;;;;12.77;11.57;;;5.00;99.90;;;;;;5073296;28;20440;-84
2023/11/27 12:16:47;;;;;;;15.40;14.00;;;5.00;99.90;;;;;;5056398;28;20848;-83
2023/11/27 12:19:19;;;;;;;14.80;13.30;;;5.00;99.90;;;;;;5056599;28;20816;-83
2023/11/27 12:21:47;;;;;;;14.10;12.70;;;5.00;99.90;;;;;;5056133;28;20509;-83
2023/11/27 12:24:19;;;;;;;13.90;12.57;;;5.00;99.90;;;;;;5055761;28;20445;-84
2023/11/27 12:26:51;;;;;;;14.03;12.73;;;5.00;99.90;;;;;;5055507;28;20450;-83
2023/11/27 12:29:20;;;;;;;13.50;12.10;;;5.00;99.90;;;;;;5055899;28;20446;-84
2023/11/27 12:31:50;;;;;;;12.40;11.20;;;5.00;99.90;;;;;;5055600;28;20506;-83
2023/11/27 12:34:18;;;;;;;11.90;10.70;;;5.00;99.90;;;;;;5055158;28;20477;-83
2023/11/27 12:36:48;;;;;;;11.83;10.73;;;4.90;99.90;;;;;;5056114;28;20438;-83
2023/11/27 12:39:25;;;;;;;11.93;10.73;;;4.90;99.90;;;;;;5055376;28;20990;-84
2023/11/27 12:42:01;;;;;;;12.40;11.30;;;4.90;99.90;;;;;;5071760;28;20473;-83
2023/11/27 12:44:31;;;;;;;13.50;12.10;;;5.00;99.90;;;;;;5056034;28;20442;-83
2023/11/27 12:47:05;;;;;;;13.73;12.33;;;4.90;99.90;;;;;;5056572;28;20446;-83
2023/11/27 12:49:35;;;;;;;13.37;12.10;;;4.90;99.90;;;;;;5056699;28;20980;-84
2023/11/27 12:52:09;;;;;;;13.60;12.20;;;4.90;99.90;;;;;;5071599;28;20516;-84